Terminal Aerodrome Forecast
Issued by NWS

Home | Current Version | Previous Version | Text Only | Print | Product List | Glossary Off
Versions: 1 2 3 4 5 6 7 8 9 10 11 12 13 14 15 16 17 18 19 20 21 22 23 24 25

000
FTUS43 KBIS 181134
TAFJMS
TAF
KJMS 181134Z 1812/1912 14006KT P6SM BKN070
     FM181900 18007KT P6SM FEW300
     FM190100 12005KT P6SM FEW080 FEW250
     FM190600 13009KT P6SM SCT060 BKN070
     FM190900 13015G23KT P6SM BKN010 BKN070=

USA.gov is the U.S. government's official web portal to all federal, state and local government web resources and services.